Time;durP1;ratioP1;P1;durP2;ratioP2;P2;SDS_P1;SDS_P2;PMS_P1;PMS_P2;Temp;Humidity;BMP_temperature;BMP_pressure;BME280_temperature;BME280_humidity;BME280_pressure;Samples;Min_cycle;Max_cycle;Signal;HPM_P1;HPM_P2
2022/02/27 00:00:07;;;;;;;1.58;0.60;;;9.10;50.10;;;;;;5046868;28;20029;-77
2022/02/27 00:02:39;;;;;;;2.22;0.90;;;9.10;50.10;;;;;;5046653;28;20135;-77
2022/02/27 00:05:05;;;;;;;1.85;0.73;;;9.10;50.10;;;;;;5047430;28;20045;-78
2022/02/27 00:07:31;;;;;;;1.92;0.77;;;9.10;50.00;;;;;;5012609;28;20060;-78
2022/02/27 00:09:58;;;;;;;1.05;0.60;;;9.10;50.00;;;;;;4995242;28;20037;-78
2022/02/27 00:12:24;;;;;;;1.45;0.77;;;9.10;49.90;;;;;;5047913;28;20108;-77
2022/02/27 00:14:50;;;;;;;4.55;0.65;;;9.10;49.90;;;;;;5029842;28;20408;-77
2022/02/27 00:17:16;;;;;;;0.82;0.57;;;9.10;50.00;;;;;;5047322;28;20458;-77
2022/02/27 00:19:42;;;;;;;2.90;0.70;;;9.10;49.90;;;;;;5029563;28;20036;-78
2022/02/27 00:22:08;;;;;;;1.67;0.88;;;9.10;50.00;;;;;;5028894;28;20515;-77
2022/02/27 00:24:34;;;;;;;5.07;0.85;;;9.00;49.90;;;;;;5029746;28;20175;-77
2022/02/27 00:27:00;;;;;;;3.08;1.05;;;9.00;50.00;;;;;;5028258;28;20041;-77
2022/02/27 00:29:26;;;;;;;2.47;1.08;;;9.00;50.00;;;;;;5047719;28;20028;-77
2022/02/27 00:31:52;;;;;;;2.17;0.93;;;9.00;50.00;;;;;;5012521;28;20082;-77
2022/02/27 00:34:19;;;;;;;0.75;0.70;;;9.00;50.00;;;;;;5024458;28;20037;-77
2022/02/27 00:36:46;;;;;;;1.88;0.90;;;9.00;50.10;;;;;;5012780;28;20025;-77
2022/02/27 00:39:12;;;;;;;0.90;0.77;;;9.00;50.00;;;;;;5046077;28;20119;-77
2022/02/27 00:41:40;;;;;;;2.60;1.00;;;9.00;50.00;;;;;;5012084;28;20546;-76
2022/02/27 00:44:06;;;;;;;1.40;0.90;;;9.00;50.00;;;;;;5029180;28;20033;-76
2022/02/27 00:46:32;;;;;;;1.48;0.90;;;9.00;50.10;;;;;;5024776;28;20396;-76
2022/02/27 00:48:58;;;;;;;2.08;0.70;;;9.00;50.20;;;;;;5028193;28;20045;-76
2022/02/27 00:51:24;;;;;;;3.33;0.95;;;9.00;50.20;;;;;;5028364;28;20041;-77
2022/02/27 00:53:50;;;;;;;1.08;0.80;;;9.00;50.30;;;;;;5028933;28;20106;-77
2022/02/27 00:56:17;;;;;;;1.27;0.85;;;9.00;50.30;;;;;;5028189;28;20058;-76
2022/02/27 00:58:50;;;;;;;1.10;0.77;;;9.00;50.30;;;;;;5028065;28;20037;-76
2022/02/27 01:01:20;;;;;;;3.03;0.70;;;8.90;50.50;;;;;;5010143;28;20474;-77
2022/02/27 01:03:46;;;;;;;1.58;0.90;;;9.00;50.50;;;;;;5028562;28;20095;-76
2022/02/27 01:06:13;;;;;;;2.35;0.75;;;9.00;50.50;;;;;;5028183;28;20124;-77
2022/02/27 01:08:42;;;;;;;2.10;0.88;;;8.90;50.40;;;;;;5028964;28;20094;-77
2022/02/27 01:11:09;;;;;;;1.20;0.68;;;8.90;50.40;;;;;;5030091;28;20484;-77
2022/02/27 01:13:37;;;;;;;1.55;0.90;;;8.90;50.40;;;;;;5045571;28;20064;-77
2022/02/27 01:16:04;;;;;;;1.85;0.98;;;8.90;50.40;;;;;;5028397;28;20110;-77
2022/02/27 01:18:32;;;;;;;1.98;0.80;;;8.90;50.40;;;;;;5046130;28;20128;-78
2022/02/27 01:20:58;;;;;;;2.38;0.95;;;8.90;50.40;;;;;;5028459;28;20909;-78
2022/02/27 01:23:24;;;;;;;3.20;0.82;;;8.90;50.40;;;;;;5047160;28;20079;-77
2022/02/27 01:25:50;;;;;;;2.67;1.08;;;8.90;50.50;;;;;;5045225;28;20043;-77
2022/02/27 01:28:16;;;;;;;1.65;0.70;;;8.90;50.50;;;;;;5043738;28;20508;-78
2022/02/27 01:30:42;;;;;;;1.95;0.82;;;8.90;50.60;;;;;;5027613;28;20037;-78
2022/02/27 01:33:08;;;;;;;2.33;0.80;;;8.90;50.70;;;;;;5027725;28;20080;-77
2022/02/27 01:35:34;;;;;;;1.05;0.70;;;8.90;50.70;;;;;;5028286;28;20061;-77
2022/02/27 01:38:00;;;;;;;1.90;0.93;;;8.90;50.80;;;;;;5045456;28;20068;-77
2022/02/27 01:40:26;;;;;;;1.60;0.70;;;8.80;50.70;;;;;;5023498;28;20048;-77
2022/02/27 01:42:52;;;;;;;4.43;1.33;;;8.80;50.80;;;;;;5028646;28;20538;-77
2022/02/27 01:45:19;;;;;;;3.30;1.00;;;8.80;50.80;;;;;;5026574;28;20523;-78
2022/02/27 01:47:44;;;;;;;1.58;0.95;;;8.80;50.80;;;;;;5043753;28;20569;-78
2022/02/27 01:50:12;;;;;;;1.83;0.85;;;8.80;50.90;;;;;;5028566;28;20036;-77
2022/02/27 01:52:38;;;;;;;2.45;1.00;;;8.80;50.90;;;;;;5009966;28;20052;-78
2022/02/27 01:55:08;;;;;;;1.02;0.80;;;8.80;51.00;;;;;;5024068;28;20064;-77
2022/02/27 01:57:34;;;;;;;1.02;0.90;;;8.80;51.00;;;;;;5028095;28;20381;-78
2022/02/27 02:00:03;;;;;;;2.75;1.00;;;8.80;51.10;;;;;;5028000;28;20028;-77
2022/02/27 02:02:39;;;;;;;1.55;1.00;;;8.80;51.10;;;;;;5046732;28;20028;-77
2022/02/27 02:05:06;;;;;;;2.40;0.70;;;8.80;51.10;;;;;;5011110;28;20440;-78
2022/02/27 02:07:33;;;;;;;3.03;1.10;;;8.80;51.20;;;;;;5010649;28;20033;-78
2022/02/27 02:09:59;;;;;;;1.50;1.00;;;8.80;51.20;;;;;;5045227;28;20036;-78
2022/02/27 02:12:26;;;;;;;1.27;1.00;;;8.80;51.20;;;;;;5043629;28;20033;-78
2022/02/27 02:14:53;;;;;;;2.05;0.90;;;8.80;51.30;;;;;;5043835;28;20040;-77
2022/02/27 02:17:19;;;;;;;3.17;1.35;;;8.70;51.30;;;;;;5022644;28;20421;-77
2022/02/27 02:19:54;;;;;;;3.20;1.10;;;8.70;51.30;;;;;;5039606;28;20520;-76
2022/02/27 02:22:20;;;;;;;2.60;0.98;;;8.70;51.30;;;;;;5027876;28;20057;-77
2022/02/27 02:24:47;;;;;;;2.22;0.90;;;8.70;51.40;;;;;;5026193;28;20467;-77
2022/02/27 02:27:13;;;;;;;1.73;0.95;;;8.70;51.50;;;;;;5043501;28;20504;-77
2022/02/27 02:29:40;;;;;;;2.42;0.90;;;8.70;51.50;;;;;;5026414;28;20120;-75
2022/02/27 02:32:09;;;;;;;1.75;1.10;;;8.70;51.60;;;;;;5026479;28;20107;-75
2022/02/27 02:34:35;;;;;;;1.95;1.02;;;8.70;51.60;;;;;;5025279;28;20040;-75
2022/02/27 02:37:01;;;;;;;2.50;1.10;;;8.70;51.70;;;;;;5043039;28;20083;-76
2022/02/27 02:39:29;;;;;;;2.22;1.10;;;8.70;51.80;;;;;;5044087;28;20037;-76
2022/02/27 02:41:57;;;;;;;1.88;1.23;;;8.60;51.80;;;;;;5025907;28;20473;-76
2022/02/27 02:44:27;;;;;;;1.52;0.80;;;8.60;51.80;;;;;;5027054;28;20043;-76
2022/02/27 02:46:53;;;;;;;1.67;0.90;;;8.70;51.90;;;;;;5026294;28;20068;-76
2022/02/27 02:49:19;;;;;;;1.25;0.90;;;8.60;51.90;;;;;;5038392;28;20059;-76
2022/02/27 02:51:50;;;;;;;1.00;0.90;;;8.60;52.00;;;;;;5009649;28;20037;-76
2022/02/27 02:54:16;;;;;;;2.05;0.93;;;8.60;52.10;;;;;;5042997;28;20523;-76
2022/02/27 02:56:42;;;;;;;1.40;1.00;;;8.60;52.10;;;;;;5028160;28;20518;-76
2022/02/27 02:59:09;;;;;;;0.98;0.70;;;8.70;52.30;;;;;;5028973;28;20464;-76
2022/02/27 03:01:35;;;;;;;1.20;0.73;;;8.60;52.30;;;;;;5028618;28;20055;-76
2022/02/27 03:04:03;;;;;;;1.52;1.00;;;8.60;52.30;;;;;;5027237;28;20410;-77
2022/02/27 03:06:30;;;;;;;3.00;1.10;;;8.60;52.40;;;;;;5027484;28;20128;-77
2022/02/27 03:08:56;;;;;;;1.60;0.90;;;8.60;52.40;;;;;;5023618;28;20065;-77
2022/02/27 03:11:23;;;;;;;0.85;0.77;;;8.60;52.50;;;;;;5028391;28;20033;-76
2022/02/27 03:13:50;;;;;;;2.03;0.93;;;8.60;52.50;;;;;;5030266;28;20036;-76
2022/02/27 03:16:17;;;;;;;1.00;0.80;;;8.60;52.50;;;;;;5028240;28;20049;-78
2022/02/27 03:18:43;;;;;;;2.30;1.17;;;8.50;52.40;;;;;;5028428;28;20037;-77
2022/02/27 03:21:09;;;;;;;2.78;0.90;;;8.50;52.40;;;;;;5042823;28;20063;-76
2022/02/27 03:23:36;;;;;;;1.33;1.00;;;8.50;52.30;;;;;;5028793;28;20919;-77
2022/02/27 03:26:03;;;;;;;1.23;0.80;;;8.40;52.10;;;;;;5028052;28;20094;-78
2022/02/27 03:28:29;;;;;;;2.30;0.80;;;8.40;52.10;;;;;;5028383;28;20059;-78
2022/02/27 03:30:55;;;;;;;0.73;0.73;;;8.40;52.00;;;;;;5027865;28;20077;-78
2022/02/27 03:33:21;;;;;;;1.55;1.00;;;8.50;52.00;;;;;;5028453;28;20034;-77
2022/02/27 03:35:47;;;;;;;1.55;0.70;;;8.40;51.80;;;;;;5029154;28;21160;-79
2022/02/27 03:38:14;;;;;;;1.23;0.80;;;8.40;51.70;;;;;;5029010;28;20037;-78
2022/02/27 03:40:40;;;;;;;2.60;1.00;;;8.40;51.70;;;;;;5027668;28;20048;-78
2022/02/27 03:43:06;;;;;;;1.73;0.70;;;8.40;51.50;;;;;;5028781;28;20053;-77
2022/02/27 03:45:32;;;;;;;1.50;0.80;;;8.30;51.40;;;;;;5027672;28;20037;-77
2022/02/27 03:47:58;;;;;;;0.90;0.70;;;8.30;51.30;;;;;;5027944;28;20136;-77
2022/02/27 03:50:24;;;;;;;1.65;1.00;;;8.30;51.30;;;;;;5027972;28;20120;-78
2022/02/27 03:52:50;;;;;;;1.05;0.80;;;8.30;51.20;;;;;;5028035;28;20089;-77
2022/02/27 03:55:17;;;;;;;2.10;0.88;;;8.20;51.00;;;;;;5042999;28;20055;-77
2022/02/27 03:57:43;;;;;;;0.85;0.85;;;8.20;51.00;;;;;;5047681;28;20060;-77
2022/02/27 04:00:12;;;;;;;2.17;0.80;;;8.20;50.90;;;;;;5047154;28;20116;-77
2022/02/27 04:02:40;;;;;;;1.65;1.00;;;8.20;51.00;;;;;;5046903;28;20040;-77
2022/02/27 04:05:06;;;;;;;1.70;0.82;;;8.20;50.80;;;;;;5048024;28;20041;-77
2022/02/27 04:07:32;;;;;;;1.10;0.80;;;8.20;50.80;;;;;;5047781;28;20033;-77
2022/02/27 04:09:58;;;;;;;2.17;0.85;;;8.10;50.80;;;;;;5047324;28;20597;-78
2022/02/27 04:12:23;;;;;;;1.10;0.63;;;8.10;50.80;;;;;;5028376;28;20384;-77
2022/02/27 04:14:49;;;;;;;0.70;0.70;;;8.10;50.80;;;;;;5045882;28;20033;-77
2022/02/27 04:17:15;;;;;;;3.10;0.60;;;8.10;50.80;;;;;;5046948;28;20095;-77
2022/02/27 04:19:41;;;;;;;1.15;0.75;;;8.00;50.70;;;;;;5047866;28;20065;-78
2022/02/27 04:22:07;;;;;;;1.52;0.70;;;8.00;50.70;;;;;;5029937;28;20036;-78
2022/02/27 04:24:33;;;;;;;0.80;0.77;;;8.00;50.70;;;;;;5048839;28;20051;-78
2022/02/27 04:26:59;;;;;;;1.95;0.98;;;8.00;50.60;;;;;;5029943;28;20075;-78
2022/02/27 04:29:25;;;;;;;1.13;0.70;;;8.00;50.70;;;;;;5030122;28;20044;-78
2022/02/27 04:31:51;;;;;;;1.05;0.60;;;8.00;50.60;;;;;;5046820;28;20136;-78
2022/02/27 04:34:18;;;;;;;1.02;0.60;;;8.00;50.50;;;;;;5029716;28;20123;-78
2022/02/27 04:36:44;;;;;;;0.77;0.77;;;7.90;51.00;;;;;;5013885;28;20087;-78
2022/02/27 04:39:10;;;;;;;2.05;0.80;;;7.90;50.30;;;;;;5029650;28;20423;-78
2022/02/27 04:41:36;;;;;;;1.10;0.65;;;7.90;50.20;;;;;;5046766;28;20033;-78
2022/02/27 04:44:02;;;;;;;1.40;0.57;;;7.90;50.10;;;;;;5047280;28;20033;-78
2022/02/27 04:46:28;;;;;;;1.00;0.77;;;7.90;49.90;;;;;;5046166;28;20095;-78
2022/02/27 04:48:54;;;;;;;1.85;1.17;;;7.80;49.70;;;;;;5029411;28;20474;-78
2022/02/27 04:51:20;;;;;;;2.00;0.60;;;7.80;49.60;;;;;;5011351;28;20124;-78
2022/02/27 04:53:49;;;;;;;4.28;0.93;;;7.80;49.50;;;;;;5046226;28;20049;-79
2022/02/27 04:56:15;;;;;;;1.48;0.52;;;7.80;49.50;;;;;;5046337;28;20124;-79
2022/02/27 04:58:41;;;;;;;1.48;0.40;;;7.70;49.40;;;;;;5045561;28;20044;-79
2022/02/27 05:01:07;;;;;;;1.88;0.85;;;7.70;49.30;;;;;;5012637;28;20041;-78
2022/02/27 05:03:33;;;;;;;1.20;0.40;;;7.70;49.30;;;;;;5027819;28;20033;-76
2022/02/27 05:05:59;;;;;;;3.10;0.40;;;7.70;49.20;;;;;;5045478;28;20041;-77
2022/02/27 05:08:25;;;;;;;2.10;0.80;;;7.70;49.20;;;;;;5046170;28;20028;-77
2022/02/27 05:10:51;;;;;;;2.38;0.60;;;7.70;49.20;;;;;;5028351;28;20043;-78
2022/02/27 05:13:17;;;;;;;1.75;0.65;;;7.60;49.10;;;;;;5045883;28;20033;-78
2022/02/27 05:15:43;;;;;;;0.77;0.60;;;7.60;49.10;;;;;;5027509;28;20035;-78
2022/02/27 05:18:09;;;;;;;0.63;0.52;;;7.60;49.00;;;;;;5028493;28;20059;-78
2022/02/27 05:20:35;;;;;;;3.63;0.70;;;7.60;49.00;;;;;;5028249;28;21849;-78
2022/02/27 05:23:01;;;;;;;1.55;0.50;;;7.70;49.20;;;;;;5046446;28;20124;-78
2022/02/27 05:25:27;;;;;;;1.05;0.50;;;7.60;49.10;;;;;;5045249;28;20047;-77
2022/02/27 05:27:54;;;;;;;1.45;0.50;;;7.60;49.10;;;;;;5045367;28;20037;-78
2022/02/27 05:30:21;;;;;;;0.73;0.55;;;7.70;49.10;;;;;;5044113;28;20527;-77
2022/02/27 05:32:48;;;;;;;0.85;0.47;;;7.70;49.00;;;;;;5044388;28;20063;-78
2022/02/27 05:35:16;;;;;;;1.42;1.00;;;7.80;48.90;;;;;;5046278;28;20078;-78
2022/02/27 05:37:42;;;;;;;3.78;0.80;;;8.00;48.90;;;;;;5027439;28;20033;-78
2022/02/27 05:40:09;;;;;;;1.65;0.65;;;8.10;48.60;;;;;;5045351;28;20535;-78
2022/02/27 05:42:35;;;;;;;2.72;0.93;;;8.20;48.50;;;;;;5044621;28;20060;-77
2022/02/27 05:45:02;;;;;;;0.70;0.70;;;8.30;48.30;;;;;;5044709;28;20510;-76
2022/02/27 05:47:28;;;;;;;1.58;0.63;;;8.40;48.20;;;;;;5043618;28;20033;-76
2022/02/27 05:49:54;;;;;;;1.38;0.63;;;8.50;48.00;;;;;;5045069;28;20041;-76
2022/02/27 05:52:20;;;;;;;1.48;0.70;;;8.50;47.80;;;;;;5045145;28;20082;-77
2022/02/27 05:54:47;;;;;;;1.42;0.68;;;8.60;47.50;;;;;;5027032;28;20079;-76
2022/02/27 05:57:13;;;;;;;0.40;0.40;;;8.70;47.30;;;;;;5010984;28;20108;-78
2022/02/27 05:59:39;;;;;;;0.82;0.40;;;8.80;47.10;;;;;;5045350;28;20856;-78
2022/02/27 06:02:05;;;;;;;4.53;0.73;;;8.90;46.90;;;;;;5027325;28;20037;-78
2022/02/27 06:04:31;;;;;;;0.60;0.47;;;9.10;46.70;;;;;;5045105;28;20041;-78
2022/02/27 06:06:57;;;;;;;3.28;0.52;;;9.10;46.50;;;;;;5026846;28;20127;-78
2022/02/27 06:09:23;;;;;;;2.85;0.52;;;9.20;46.00;;;;;;5027671;28;20219;-78
2022/02/27 06:11:49;;;;;;;1.65;0.50;;;9.20;45.90;;;;;;5045396;28;20040;-79
2022/02/27 06:14:15;;;;;;;0.77;0.52;;;9.20;45.50;;;;;;5046570;28;20021;-78
2022/02/27 06:16:41;;;;;;;0.60;0.50;;;9.30;45.60;;;;;;5044725;28;20029;-79
2022/02/27 06:19:07;;;;;;;0.63;0.43;;;9.30;45.50;;;;;;5045592;28;20060;-77
2022/02/27 06:21:33;;;;;;;1.00;0.40;;;9.40;45.40;;;;;;5044537;28;20029;-78
2022/02/27 06:23:59;;;;;;;1.35;0.65;;;9.40;45.30;;;;;;5045081;28;20712;-78
2022/02/27 06:26:25;;;;;;;0.80;0.60;;;9.50;45.20;;;;;;5028164;28;20035;-77
2022/02/27 06:28:51;;;;;;;0.57;0.52;;;9.70;45.20;;;;;;5045555;28;20033;-78
2022/02/27 06:31:17;;;;;;;2.92;0.68;;;9.70;45.60;;;;;;5044424;28;20033;-79
2022/02/27 06:33:44;;;;;;;3.20;1.00;;;9.80;45.00;;;;;;5045609;28;20032;-79
2022/02/27 06:36:10;;;;;;;2.35;1.00;;;9.80;44.60;;;;;;5046377;28;20029;-79
2022/02/27 06:38:36;;;;;;;3.28;1.40;;;9.80;44.60;;;;;;5045842;28;20029;-80
2022/02/27 06:41:03;;;;;;;4.05;0.90;;;9.80;44.60;;;;;;5025216;28;20058;-79
2022/02/27 06:43:32;;;;;;;1.00;0.80;;;9.80;44.50;;;;;;5045612;28;20033;-78
2022/02/27 06:46:02;;;;;;;1.27;0.90;;;9.90;44.70;;;;;;5043950;28;20511;-80
2022/02/27 06:48:27;;;;;;;1.55;0.80;;;9.90;44.80;;;;;;5044060;28;20041;-80
2022/02/27 06:50:53;;;;;;;4.75;1.20;;;10.00;44.70;;;;;;5044528;28;20551;-79
2022/02/27 06:53:19;;;;;;;1.35;0.98;;;10.00;44.70;;;;;;5045391;28;20400;-78
2022/02/27 06:55:45;;;;;;;2.03;1.00;;;10.00;44.40;;;;;;5044270;28;20041;-78
2022/02/27 06:58:13;;;;;;;2.85;1.10;;;10.00;44.40;;;;;;5045021;28;20041;-77
2022/02/27 07:00:39;;;;;;;2.67;0.90;;;10.00;44.30;;;;;;5044486;28;20060;-79
2022/02/27 07:03:05;;;;;;;1.13;1.02;;;10.00;44.30;;;;;;5045960;28;20068;-78
2022/02/27 07:05:30;;;;;;;1.60;1.00;;;10.00;44.20;;;;;;5026904;28;20040;-78
2022/02/27 07:07:56;;;;;;;1.60;1.20;;;10.00;44.00;;;;;;5042639;28;20084;-80
2022/02/27 07:10:22;;;;;;;3.90;1.10;;;10.00;44.10;;;;;;5026187;28;20029;-80
2022/02/27 07:12:48;;;;;;;2.03;1.20;;;10.00;44.10;;;;;;5042289;28;20155;-80
2022/02/27 07:15:14;;;;;;;2.70;1.40;;;10.00;44.20;;;;;;5043931;28;20132;-80
2022/02/27 07:17:40;;;;;;;3.15;1.52;;;10.00;44.20;;;;;;5044310;28;20029;-80
2022/02/27 07:20:07;;;;;;;1.80;1.20;;;10.00;44.30;;;;;;5041994;28;20048;-79
2022/02/27 07:22:36;;;;;;;2.78;1.55;;;10.00;45.40;;;;;;5045159;28;20036;-80
2022/02/27 07:25:04;;;;;;;2.13;1.40;;;10.00;45.40;;;;;;5044157;28;20032;-81
2022/02/27 07:27:32;;;;;;;2.17;1.40;;;10.00;45.00;;;;;;5044592;28;20033;-81
2022/02/27 07:29:59;;;;;;;3.40;1.60;;;9.90;44.70;;;;;;5044299;28;20499;-84
2022/02/27 07:32:25;;;;;;;3.72;1.73;;;9.90;44.40;;;;;;5027678;28;20575;-80
2022/02/27 07:34:51;;;;;;;1.90;1.70;;;9.90;44.20;;;;;;5044529;28;20065;-80
2022/02/27 07:37:17;;;;;;;4.32;1.83;;;9.90;44.10;;;;;;5026497;28;20071;-78
2022/02/27 07:39:43;;;;;;;2.10;1.50;;;9.80;44.00;;;;;;5047839;28;20730;-80
2022/02/27 07:42:09;;;;;;;2.60;1.65;;;9.80;43.90;;;;;;5047667;28;20045;-80
2022/02/27 07:44:35;;;;;;;3.33;1.98;;;9.70;43.90;;;;;;5010412;28;20041;-81
2022/02/27 07:47:01;;;;;;;2.35;1.88;;;9.80;44.10;;;;;;5047962;28;20040;-77
2022/02/27 07:49:27;;;;;;;3.13;1.85;;;9.70;44.10;;;;;;5032861;28;20029;-81
2022/02/27 07:51:54;;;;;;;4.38;1.67;;;9.70;44.40;;;;;;5032033;28;20041;-88
2022/02/27 07:54:20;;;;;;;2.05;1.50;;;9.60;43.50;;;;;;5031820;28;20128;-86
2022/02/27 07:56:46;;;;;;;3.15;1.25;;;9.50;42.70;;;;;;5052765;28;20052;-87
2022/02/27 07:59:13;;;;;;;3.50;1.20;;;9.40;42.60;;;;;;5017840;28;20029;-85
2022/02/27 08:01:39;;;;;;;1.38;1.15;;;9.30;42.70;;;;;;5030285;28;20086;-82
2022/02/27 08:04:05;;;;;;;3.55;1.00;;;9.20;42.80;;;;;;5029311;28;20033;-82
2022/02/27 08:06:35;;;;;;;2.25;1.05;;;9.10;42.60;;;;;;5047890;28;20033;-82
2022/02/27 08:09:03;;;;;;;2.45;0.93;;;9.00;42.60;;;;;;5028330;28;20122;-85
2022/02/27 08:11:30;;;;;;;2.50;0.77;;;8.90;42.70;;;;;;5028120;28;20037;-82
2022/02/27 08:13:56;;;;;;;3.03;1.17;;;8.80;42.70;;;;;;5045551;28;20858;-79
2022/02/27 08:16:22;;;;;;;2.53;1.02;;;8.70;42.70;;;;;;5042972;28;20064;-82
2022/02/27 08:18:48;;;;;;;2.22;0.95;;;8.60;43.00;;;;;;5029946;28;20056;-82
2022/02/27 08:21:14;;;;;;;3.95;1.10;;;8.60;43.00;;;;;;5046351;28;20060;-82
2022/02/27 08:23:40;;;;;;;3.13;1.20;;;8.50;43.00;;;;;;5047521;28;20516;-87
2022/02/27 08:26:06;;;;;;;2.63;1.05;;;8.50;43.20;;;;;;5046677;28;20076;-80
2022/02/27 08:28:32;;;;;;;2.03;1.00;;;8.50;43.30;;;;;;5047137;28;20025;-91
2022/02/27 08:30:59;;;;;;;1.40;1.02;;;8.40;43.30;;;;;;5044683;28;20033;-81
2022/02/27 08:33:26;;;;;;;2.53;1.02;;;8.50;45.10;;;;;;5045259;28;20035;-86
2022/02/27 08:35:55;;;;;;;1.13;0.75;;;8.50;45.30;;;;;;5045952;28;20059;-80
2022/02/27 08:38:22;;;;;;;3.58;1.20;;;8.60;45.10;;;;;;5039747;28;20024;-81
2022/02/27 08:40:50;;;;;;;1.75;0.90;;;8.70;44.80;;;;;;5045495;28;20068;-80
2022/02/27 08:43:17;;;;;;;3.00;0.93;;;8.70;44.40;;;;;;5045624;28;20050;-83
2022/02/27 08:45:43;;;;;;;2.22;1.30;;;8.80;44.10;;;;;;5027119;28;20139;-82
2022/02/27 08:48:09;;;;;;;2.25;1.20;;;8.80;44.00;;;;;;5045053;28;20156;-79
2022/02/27 08:50:35;;;;;;;1.85;1.00;;;8.80;43.70;;;;;;5045315;28;20076;-81
2022/02/27 08:53:01;;;;;;;2.55;1.23;;;8.90;43.70;;;;;;5014311;28;20041;-81
2022/02/27 08:55:27;;;;;;;4.22;1.20;;;8.90;43.60;;;;;;5038531;28;20624;-80
2022/02/27 08:57:53;;;;;;;3.33;1.30;;;8.90;43.60;;;;;;5025822;28;20040;-80
2022/02/27 09:00:19;;;;;;;3.25;1.27;;;8.90;43.60;;;;;;5023716;28;20411;-82
2022/02/27 09:02:47;;;;;;;2.95;1.10;;;8.90;43.60;;;;;;5024564;28;20572;-86
2022/02/27 09:05:13;;;;;;;1.67;1.10;;;8.90;43.50;;;;;;5029473;28;20033;-90
2022/02/27 09:07:39;;;;;;;1.60;1.40;;;8.90;43.30;;;;;;5008634;28;20029;-87
2022/02/27 09:10:08;;;;;;;1.67;1.13;;;8.90;43.40;;;;;;5043680;28;20033;-88
2022/02/27 09:12:35;;;;;;;1.45;1.20;;;9.00;43.50;;;;;;5045667;28;20034;-88
2022/02/27 09:15:01;;;;;;;3.75;1.20;;;9.00;43.40;;;;;;5026562;28;20143;-86
2022/02/27 09:17:27;;;;;;;2.42;1.10;;;9.00;43.30;;;;;;5042245;28;20033;-91
2022/02/27 09:19:53;;;;;;;3.35;1.30;;;9.00;43.20;;;;;;5042735;28;20033;-85
2022/02/27 09:22:19;;;;;;;1.98;1.55;;;8.90;43.30;;;;;;5024967;28;20041;-86
2022/02/27 09:24:45;;;;;;;3.50;1.38;;;8.90;43.30;;;;;;5042006;28;20046;-85
2022/02/27 09:27:14;;;;;;;3.45;1.40;;;9.00;43.50;;;;;;5027162;28;20033;-89
2022/02/27 09:29:40;;;;;;;3.50;1.60;;;9.00;43.30;;;;;;5026626;28;20034;-86
2022/02/27 09:32:06;;;;;;;3.90;2.15;;;9.00;43.10;;;;;;5025542;28;20041;-89
2022/02/27 09:34:32;;;;;;;4.13;2.38;;;9.00;43.00;;;;;;5041708;28;20037;-87
2022/02/27 09:36:58;;;;;;;3.75;2.30;;;9.00;43.20;;;;;;5028347;28;20030;-86
2022/02/27 09:39:26;;;;;;;3.45;2.17;;;9.00;43.30;;;;;;5010721;28;20088;-85
2022/02/27 09:41:52;;;;;;;3.58;1.88;;;9.00;43.10;;;;;;5025567;28;20034;-85
2022/02/27 09:44:19;;;;;;;2.83;1.98;;;9.00;43.00;;;;;;5008073;28;20451;-87
2022/02/27 09:46:48;;;;;;;4.30;2.00;;;9.00;43.20;;;;;;5023172;28;20128;-87
2022/02/27 09:49:15;;;;;;;3.22;1.90;;;9.00;43.20;;;;;;5035846;28;20037;-86
2022/02/27 09:51:42;;;;;;;2.35;1.70;;;9.00;43.30;;;;;;5027462;28;20132;-85
2022/02/27 09:54:09;;;;;;;3.47;2.28;;;9.00;43.30;;;;;;5007775;28;20081;-85
2022/02/27 09:56:36;;;;;;;3.10;1.92;;;9.00;43.20;;;;;;5023183;28;20596;-87
2022/02/27 09:59:02;;;;;;;1.77;1.50;;;9.10;43.10;;;;;;5024272;28;20124;-85
2022/02/27 10:01:28;;;;;;;2.60;1.73;;;9.10;43.10;;;;;;5040198;28;20109;-85
2022/02/27 10:03:54;;;;;;;2.42;1.60;;;9.10;43.10;;;;;;5023453;28;20038;-87
2022/02/27 10:06:20;;;;;;;2.35;1.58;;;9.00;43.20;;;;;;5006091;28;20045;-85
2022/02/27 10:08:54;;;;;;;2.28;1.58;;;9.00;43.10;;;;;;5025404;28;20512;-85
2022/02/27 10:11:21;;;;;;;3.80;1.80;;;8.90;43.10;;;;;;5003591;28;20026;-85
2022/02/27 10:13:52;;;;;;;2.80;1.98;;;8.90;43.10;;;;;;5039766;28;20036;-85
2022/02/27 10:16:30;;;;;;;4.63;1.80;;;8.90;43.30;;;;;;5023509;28;20041;-85
2022/02/27 10:19:00;;;;;;;3.08;1.98;;;9.00;43.50;;;;;;5023804;28;20451;-87
2022/02/27 10:21:36;;;;;;;2.83;1.80;;;9.00;43.50;;;;;;5022849;28;20048;-87
2022/02/27 10:24:15;;;;;;;2.60;1.45;;;9.00;43.50;;;;;;5039344;28;20033;-87
2022/02/27 10:26:43;;;;;;;3.13;1.77;;;9.00;43.50;;;;;;5025066;28;20057;-87
2022/02/27 10:29:16;;;;;;;2.65;1.90;;;9.00;43.50;;;;;;5021667;28;20123;-85
2022/02/27 10:32:09;;;;;;;2.45;1.65;;;9.00;43.30;;;;;;5022843;28;20124;-87
2022/02/27 10:34:36;;;;;;;2.58;1.60;;;9.00;43.20;;;;;;5019672;28;20095;-86
2022/02/27 10:37:14;;;;;;;3.20;1.60;;;9.00;43.10;;;;;;5035604;28;20037;-86
2022/02/27 10:39:44;;;;;;;1.98;1.63;;;9.00;43.00;;;;;;5022629;28;20111;-86
2022/02/27 10:42:19;;;;;;;2.88;1.60;;;8.90;42.80;;;;;;5039635;28;20030;-86
2022/02/27 10:44:54;;;;;;;3.13;1.50;;;8.90;42.90;;;;;;5039264;28;20029;-86
2022/02/27 10:47:30;;;;;;;1.88;1.48;;;8.90;43.00;;;;;;5023678;28;20295;-85
2022/02/27 10:49:58;;;;;;;4.80;1.65;;;8.90;42.70;;;;;;5036528;28;20059;-85
2022/02/27 10:52:27;;;;;;;1.50;1.35;;;8.80;42.60;;;;;;5024385;28;20497;-85
2022/02/27 10:54:59;;;;;;;3.83;2.08;;;8.80;44.10;;;;;;5037177;28;20135;-85
2022/02/27 10:57:30;;;;;;;2.30;1.83;;;8.80;44.00;;;;;;5044103;28;20029;-86
2022/02/27 11:00:20;;;;;;;1.95;1.58;;;8.80;43.80;;;;;;5026732;28;20035;-84
2022/02/27 11:02:52;;;;;;;1.65;1.55;;;8.80;43.60;;;;;;5010816;28;20064;-86
2022/02/27 11:05:21;;;;;;;3.42;1.80;;;8.80;43.50;;;;;;5011610;28;20037;-85
2022/02/27 11:07:50;;;;;;;4.15;1.50;;;8.80;43.50;;;;;;5010646;28;20033;-85
2022/02/27 11:10:19;;;;;;;2.45;1.35;;;8.80;43.50;;;;;;5026874;28;20131;-85
2022/02/27 11:12:45;;;;;;;2.72;1.52;;;8.90;43.60;;;;;;5044781;28;20113;-85
2022/02/27 11:15:14;;;;;;;2.17;1.67;;;8.90;43.50;;;;;;5046542;28;20115;-84
2022/02/27 11:17:42;;;;;;;2.95;1.40;;;8.90;43.50;;;;;;5011375;28;20087;-85
2022/02/27 11:20:10;;;;;;;3.33;1.70;;;8.80;43.30;;;;;;5030937;28;20056;-85
2022/02/27 11:22:36;;;;;;;3.63;1.55;;;8.80;43.30;;;;;;4998737;28;20044;-85
2022/02/27 11:25:08;;;;;;;3.45;1.70;;;8.80;43.10;;;;;;5047991;28;20037;-86
2022/02/27 11:27:36;;;;;;;3.60;1.75;;;8.70;43.00;;;;;;5043349;28;20516;-85
2022/02/27 11:30:04;;;;;;;3.13;1.50;;;8.70;43.00;;;;;;5044090;28;20247;-90
2022/02/27 11:32:31;;;;;;;2.75;1.27;;;8.70;43.00;;;;;;5049261;28;20029;-94
2022/02/27 11:34:57;;;;;;;2.55;1.10;;;8.70;43.10;;;;;;5033236;28;20096;-85
2022/02/27 11:37:50;;;;;;;1.67;1.45;;;8.70;42.90;;;;;;5048101;28;20041;-84
2022/02/27 11:40:28;;;;;;;2.95;1.48;;;8.70;42.80;;;;;;5029247;28;20056;-84
2022/02/27 11:42:55;;;;;;;3.25;1.60;;;8.70;42.60;;;;;;5047934;28;20037;-81
2022/02/27 11:45:44;;;;;;;2.78;1.35;;;8.60;42.50;;;;;;5030772;28;20044;-83
2022/02/27 11:48:10;;;;;;;1.73;1.50;;;8.60;42.40;;;;;;5029754;28;20041;-84
2022/02/27 11:50:40;;;;;;;5.97;1.50;;;8.60;42.40;;;;;;5048877;28;20141;-81
2022/02/27 11:53:24;;;;;;;3.38;1.60;;;8.50;42.30;;;;;;5014970;28;20041;-82
2022/02/27 11:55:53;;;;;;;2.15;1.75;;;8.50;42.80;;;;;;5047804;28;20041;-85
2022/02/27 11:58:37;;;;;;;3.33;1.60;;;8.60;44.30;;;;;;5027308;28;20526;-86
2022/02/27 12:01:04;;;;;;;1.92;1.52;;;8.60;43.90;;;;;;5029295;28;20033;-82
2022/02/27 12:03:30;;;;;;;3.55;1.58;;;8.60;43.70;;;;;;5030959;28;20044;-83
2022/02/27 12:06:00;;;;;;;3.10;1.48;;;8.70;43.60;;;;;;5028928;28;20036;-87
2022/02/27 12:08:42;;;;;;;3.80;1.40;;;8.70;43.80;;;;;;5013156;28;20029;-88
2022/02/27 12:11:30;;;;;;;3.92;1.50;;;8.70;43.70;;;;;;5047537;28;20124;-83
2022/02/27 12:14:00;;;;;;;2.50;1.58;;;8.80;43.60;;;;;;5012414;28;20125;-86
2022/02/27 12:16:43;;;;;;;3.42;1.40;;;8.80;43.50;;;;;;5046920;28;20056;-85
2022/02/27 12:19:24;;;;;;;3.10;1.70;;;8.80;43.50;;;;;;5047280;28;20432;-87
2022/02/27 12:21:53;;;;;;;3.83;1.63;;;8.80;43.40;;;;;;5027350;28;20049;-89
2022/02/27 12:24:29;;;;;;;2.63;1.33;;;8.90;43.30;;;;;;5046960;28;20036;-86
2022/02/27 12:26:59;;;;;;;2.22;1.40;;;8.90;43.40;;;;;;5011769;28;20123;-84
2022/02/27 12:29:38;;;;;;;1.92;1.30;;;8.90;43.30;;;;;;5029272;28;20075;-82
2022/02/27 12:32:10;;;;;;;4.55;1.35;;;8.90;43.10;;;;;;5046138;28;20037;-82
2022/02/27 12:34:37;;;;;;;2.53;1.52;;;8.90;43.00;;;;;;5041979;28;20467;-84
2022/02/27 12:37:05;;;;;;;2.38;1.30;;;8.90;42.90;;;;;;5028601;28;20025;-83
2022/02/27 12:39:36;;;;;;;1.90;1.50;;;8.80;43.00;;;;;;5046618;28;20033;-83
2022/02/27 12:42:05;;;;;;;2.70;1.60;;;8.80;43.10;;;;;;5028467;28;20056;-83
2022/02/27 12:44:33;;;;;;;5.07;1.60;;;8.90;43.20;;;;;;5029770;28;20091;-85
2022/02/27 12:47:01;;;;;;;2.42;1.50;;;8.80;43.20;;;;;;5045343;28;20037;-83
2022/02/27 12:52:17;;;;;;;3.53;2.05;;;8.90;43.20;;;;;;5027636;28;20037;-84
2022/02/27 12:54:51;;;;;;;3.97;2.20;;;8.90;43.20;;;;;;5045874;28;20559;-84
2022/02/27 12:57:17;;;;;;;2.58;1.85;;;8.90;43.30;;;;;;5046511;28;20052;-85
2022/02/27 12:59:45;;;;;;;5.68;2.20;;;8.90;43.20;;;;;;5046180;28;20039;-84